sensor_id;sensor_type;location;lat;lon;timestamp;P1;durP1;ratioP1;P2;durP2;ratioP2
7823;SDS011;3957;48.61947800;9.05303100;2022-12-10T06:01:31;32.72;;;18.95;;
7823;SDS011;3957;48.61947800;9.05303100;2022-12-10T06:02:33;31.77;;;18.90;;
7823;SDS011;3957;48.61947800;9.05303100;2022-12-10T06:03:33;30.80;;;19.57;;
7823;SDS011;3957;48.61947800;9.05303100;2022-12-10T06:04:34;31.48;;;19.30;;
7823;SDS011;3957;48.61947800;9.05303100;2022-12-10T06:05:38;30.50;;;19.43;;
7823;SDS011;3957;48.61947800;9.05303100;2022-12-10T06:06:39;29.33;;;18.65;;
7823;SDS011;3957;48.61947800;9.05303100;2022-12-10T06:07:41;27.48;;;17.95;;
7823;SDS011;3957;48.61947800;9.05303100;2022-12-10T06:08:41;28.90;;;18.52;;
7823;SDS011;3957;48.61947800;9.05303100;2022-12-10T06:09:42;31.45;;;19.23;;
7823;SDS011;3957;48.61947800;9.05303100;2022-12-10T06:10:42;29.37;;;18.20;;
7823;SDS011;3957;48.61947800;9.05303100;2022-12-10T06:11:43;34.13;;;19.00;;
7823;SDS011;3957;48.61947800;9.05303100;2022-12-10T06:12:43;31.10;;;19.10;;
7823;SDS011;3957;48.61947800;9.05303100;2022-12-10T06:13:43;31.58;;;19.63;;
7823;SDS011;3957;48.61947800;9.05303100;2022-12-10T06:14:44;37.37;;;20.43;;
7823;SDS011;3957;48.61947800;9.05303100;2022-12-10T06:15:46;31.80;;;19.00;;
7823;SDS011;3957;48.61947800;9.05303100;2022-12-10T06:16:46;33.65;;;18.98;;
7823;SDS011;3957;48.61947800;9.05303100;2022-12-10T06:17:46;32.50;;;20.10;;
7823;SDS011;3957;48.61947800;9.05303100;2022-12-10T06:18:47;29.73;;;18.47;;
7823;SDS011;3957;48.61947800;9.05303100;2022-12-10T06:19:47;35.47;;;19.77;;
7823;SDS011;3957;48.61947800;9.05303100;2022-12-10T06:20:47;35.03;;;20.20;;
7823;SDS011;3957;48.61947800;9.05303100;2022-12-10T06:21:48;30.50;;;19.90;;
7823;SDS011;3957;48.61947800;9.05303100;2022-12-10T06:22:48;31.45;;;19.60;;
7823;SDS011;3957;48.61947800;9.05303100;2022-12-10T06:23:49;32.33;;;19.60;;
7823;SDS011;3957;48.61947800;9.05303100;2022-12-10T06:24:51;28.25;;;18.88;;
7823;SDS011;3957;48.61947800;9.05303100;2022-12-10T06:25:51;29.00;;;18.27;;
7823;SDS011;3957;48.61947800;9.05303100;2022-12-10T06:26:52;31.52;;;19.67;;
7823;SDS011;3957;48.61947800;9.05303100;2022-12-10T06:27:52;34.87;;;19.67;;
7823;SDS011;3957;48.61947800;9.05303100;2022-12-10T06:28:53;29.63;;;18.50;;
7823;SDS011;3957;48.61947800;9.05303100;2022-12-10T06:29:54;32.67;;;19.75;;
7823;SDS011;3957;48.61947800;9.05303100;2022-12-10T06:30:54;31.15;;;18.60;;
7823;SDS011;3957;48.61947800;9.05303100;2022-12-10T06:31:54;31.00;;;19.40;;
7823;SDS011;3957;48.61947800;9.05303100;2022-12-10T06:32:56;29.33;;;18.30;;
7823;SDS011;3957;48.61947800;9.05303100;2022-12-10T06:33:56;28.23;;;17.77;;
7823;SDS011;3957;48.61947800;9.05303100;2022-12-10T06:34:57;28.47;;;18.53;;
7823;SDS011;3957;48.61947800;9.05303100;2022-12-10T06:35:57;34.27;;;20.33;;
7823;SDS011;3957;48.61947800;9.05303100;2022-12-10T06:36:59;31.42;;;18.60;;
7823;SDS011;3957;48.61947800;9.05303100;2022-12-10T06:37:59;35.85;;;20.50;;
7823;SDS011;3957;48.61947800;9.05303100;2022-12-10T06:38:59;32.00;;;19.67;;
7823;SDS011;3957;48.61947800;9.05303100;2022-12-10T06:40:00;38.70;;;20.85;;
7823;SDS011;3957;48.61947800;9.05303100;2022-12-10T06:41:03;32.97;;;19.03;;
7823;SDS011;3957;48.61947800;9.05303100;2022-12-10T06:42:04;34.45;;;20.48;;
7823;SDS011;3957;48.61947800;9.05303100;2022-12-10T06:43:05;32.22;;;20.33;;
7823;SDS011;3957;48.61947800;9.05303100;2022-12-10T06:44:07;32.80;;;19.07;;
7823;SDS011;3957;48.61947800;9.05303100;2022-12-10T06:45:07;31.42;;;19.55;;
7823;SDS011;3957;48.61947800;9.05303100;2022-12-10T06:46:09;33.35;;;19.45;;
7823;SDS011;3957;48.61947800;9.05303100;2022-12-10T06:47:12;31.00;;;18.45;;
7823;SDS011;3957;48.61947800;9.05303100;2022-12-10T06:48:12;30.02;;;18.60;;
7823;SDS011;3957;48.61947800;9.05303100;2022-12-10T06:49:13;28.83;;;18.00;;
7823;SDS011;3957;48.61947800;9.05303100;2022-12-10T06:50:13;31.63;;;18.83;;
7823;SDS011;3957;48.61947800;9.05303100;2022-12-10T06:51:14;30.40;;;18.80;;
7823;SDS011;3957;48.61947800;9.05303100;2022-12-10T06:52:14;33.03;;;20.25;;
7823;SDS011;3957;48.61947800;9.05303100;2022-12-10T06:53:14;30.57;;;18.13;;
7823;SDS011;3957;48.61947800;9.05303100;2022-12-10T06:54:15;31.60;;;19.08;;
7823;SDS011;3957;48.61947800;9.05303100;2022-12-10T06:55:15;28.50;;;18.57;;
7823;SDS011;3957;48.61947800;9.05303100;2022-12-10T06:56:16;26.40;;;17.65;;
7823;SDS011;3957;48.61947800;9.05303100;2022-12-10T06:57:18;30.15;;;19.02;;
7823;SDS011;3957;48.61947800;9.05303100;2022-12-10T06:58:19;31.27;;;19.67;;
7823;SDS011;3957;48.61947800;9.05303100;2022-12-10T06:59:19;30.42;;;18.75;;
7823;SDS011;3957;48.61947800;9.05303100;2022-12-10T07:00:20;31.95;;;18.65;;
7823;SDS011;3957;48.61947800;9.05303100;2022-12-10T07:01:22;31.13;;;19.33;;
7823;SDS011;3957;48.61947800;9.05303100;2022-12-10T07:02:25;28.63;;;18.25;;
7823;SDS011;3957;48.61947800;9.05303100;2022-12-10T07:03:26;32.67;;;18.77;;
7823;SDS011;3957;48.61947800;9.05303100;2022-12-10T07:04:26;33.47;;;19.45;;
7823;SDS011;3957;48.61947800;9.05303100;2022-12-10T07:05:27;27.57;;;18.50;;
7823;SDS011;3957;48.61947800;9.05303100;2022-12-10T07:06:27;29.08;;;18.40;;
7823;SDS011;3957;48.61947800;9.05303100;2022-12-10T07:07:30;35.90;;;20.63;;
7823;SDS011;3957;48.61947800;9.05303100;2022-12-10T07:08:30;29.73;;;19.33;;
7823;SDS011;3957;48.61947800;9.05303100;2022-12-10T07:09:31;29.53;;;18.73;;
7823;SDS011;3957;48.61947800;9.05303100;2022-12-10T07:10:32;31.95;;;20.65;;
7823;SDS011;3957;48.61947800;9.05303100;2022-12-10T07:11:32;29.23;;;18.67;;
7823;SDS011;3957;48.61947800;9.05303100;2022-12-10T07:12:33;32.47;;;20.03;;
7823;SDS011;3957;48.61947800;9.05303100;2022-12-10T07:13:33;31.35;;;18.85;;
7823;SDS011;3957;48.61947800;9.05303100;2022-12-10T07:14:34;29.33;;;19.48;;
7823;SDS011;3957;48.61947800;9.05303100;2022-12-10T07:15:35;33.35;;;20.15;;
7823;SDS011;3957;48.61947800;9.05303100;2022-12-10T07:16:35;31.33;;;19.67;;
7823;SDS011;3957;48.61947800;9.05303100;2022-12-10T07:17:35;34.70;;;19.70;;
7823;SDS011;3957;48.61947800;9.05303100;2022-12-10T07:18:36;31.80;;;19.97;;
7823;SDS011;3957;48.61947800;9.05303100;2022-12-10T07:19:36;30.15;;;19.10;;
7823;SDS011;3957;48.61947800;9.05303100;2022-12-10T07:20:37;28.63;;;18.77;;
7823;SDS011;3957;48.61947800;9.05303100;2022-12-10T07:21:38;35.00;;;21.53;;
7823;SDS011;3957;48.61947800;9.05303100;2022-12-10T07:22:40;32.60;;;20.10;;
7823;SDS011;3957;48.61947800;9.05303100;2022-12-10T07:23:40;31.37;;;19.57;;
7823;SDS011;3957;48.61947800;9.05303100;2022-12-10T07:24:41;30.53;;;19.43;;
7823;SDS011;3957;48.61947800;9.05303100;2022-12-10T07:25:41;33.03;;;19.52;;
7823;SDS011;3957;48.61947800;9.05303100;2022-12-10T07:26:42;29.93;;;20.40;;
7823;SDS011;3957;48.61947800;9.05303100;2022-12-10T07:27:44;32.15;;;20.00;;
7823;SDS011;3957;48.61947800;9.05303100;2022-12-10T07:28:44;31.03;;;19.17;;
7823;SDS011;3957;48.61947800;9.05303100;2022-12-10T07:29:45;30.27;;;19.65;;
7823;SDS011;3957;48.61947800;9.05303100;2022-12-10T07:30:46;27.73;;;18.77;;
7823;SDS011;3957;48.61947800;9.05303100;2022-12-10T07:31:46;31.93;;;20.17;;
7823;SDS011;3957;48.61947800;9.05303100;2022-12-10T07:32:48;31.75;;;20.27;;
7823;SDS011;3957;48.61947800;9.05303100;2022-12-10T07:33:49;31.27;;;19.23;;
7823;SDS011;3957;48.61947800;9.05303100;2022-12-10T07:34:51;28.70;;;18.65;;
7823;SDS011;3957;48.61947800;9.05303100;2022-12-10T07:35:53;33.67;;;19.83;;
7823;SDS011;3957;48.61947800;9.05303100;2022-12-10T07:36:54;32.00;;;19.45;;
7823;SDS011;3957;48.61947800;9.05303100;2022-12-10T07:37:55;32.28;;;18.58;;
7823;SDS011;3957;48.61947800;9.05303100;2022-12-10T07:38:55;30.70;;;19.15;;
7823;SDS011;3957;48.61947800;9.05303100;2022-12-10T07:39:56;29.90;;;18.30;;
7823;SDS011;3957;48.61947800;9.05303100;2022-12-10T07:40:56;31.13;;;18.92;;
7823;SDS011;3957;48.61947800;9.05303100;2022-12-10T07:41:56;37.53;;;21.37;;
7823;SDS011;3957;48.61947800;9.05303100;2022-12-10T07:42:57;33.50;;;20.75;;
7823;SDS011;3957;48.61947800;9.05303100;2022-12-10T07:43:57;31.10;;;19.60;;
7823;SDS011;3957;48.61947800;9.05303100;2022-12-10T07:44:58;37.30;;;20.70;;
7823;SDS011;3957;48.61947800;9.05303100;2022-12-10T07:46:02;31.93;;;19.47;;
7823;SDS011;3957;48.61947800;9.05303100;2022-12-10T07:47:04;33.58;;;20.52;;
7823;SDS011;3957;48.61947800;9.05303100;2022-12-10T07:48:05;30.83;;;19.17;;
7823;SDS011;3957;48.61947800;9.05303100;2022-12-10T07:49:05;29.40;;;19.00;;
7823;SDS011;3957;48.61947800;9.05303100;2022-12-10T07:50:05;30.42;;;19.40;;
7823;SDS011;3957;48.61947800;9.05303100;2022-12-10T07:51:07;32.97;;;20.23;;
7823;SDS011;3957;48.61947800;9.05303100;2022-12-10T07:52:07;31.55;;;20.13;;
7823;SDS011;3957;48.61947800;9.05303100;2022-12-10T07:53:10;32.53;;;20.10;;
7823;SDS011;3957;48.61947800;9.05303100;2022-12-10T07:54:10;30.77;;;20.05;;
7823;SDS011;3957;48.61947800;9.05303100;2022-12-10T07:55:10;30.77;;;19.43;;
7823;SDS011;3957;48.61947800;9.05303100;2022-12-10T07:56:11;32.27;;;20.03;;
7823;SDS011;3957;48.61947800;9.05303100;2022-12-10T07:57:11;31.27;;;18.85;;
7823;SDS011;3957;48.61947800;9.05303100;2022-12-10T07:58:12;31.47;;;19.60;;
7823;SDS011;3957;48.61947800;9.05303100;2022-12-10T07:59:12;30.67;;;19.88;;
7823;SDS011;3957;48.61947800;9.05303100;2022-12-10T08:00:12;27.93;;;18.50;;
7823;SDS011;3957;48.61947800;9.05303100;2022-12-10T08:01:15;29.90;;;19.20;;
7823;SDS011;3957;48.61947800;9.05303100;2022-12-10T08:02:17;31.38;;;19.48;;
7823;SDS011;3957;48.61947800;9.05303100;2022-12-10T08:03:17;29.77;;;19.87;;
7823;SDS011;3957;48.61947800;9.05303100;2022-12-10T08:04:18;30.07;;;18.77;;
7823;SDS011;3957;48.61947800;9.05303100;2022-12-10T08:05:18;31.13;;;19.65;;
7823;SDS011;3957;48.61947800;9.05303100;2022-12-10T08:06:20;29.87;;;18.87;;
7823;SDS011;3957;48.61947800;9.05303100;2022-12-10T08:07:21;32.88;;;21.23;;
7823;SDS011;3957;48.61947800;9.05303100;2022-12-10T08:08:21;32.00;;;20.90;;
7823;SDS011;3957;48.61947800;9.05303100;2022-12-10T08:09:22;30.20;;;19.60;;
7823;SDS011;3957;48.61947800;9.05303100;2022-12-10T08:10:22;29.17;;;19.07;;
7823;SDS011;3957;48.61947800;9.05303100;2022-12-10T08:11:23;31.00;;;18.70;;
7823;SDS011;3957;48.61947800;9.05303100;2022-12-10T08:12:23;29.67;;;18.67;;
7823;SDS011;3957;48.61947800;9.05303100;2022-12-10T08:13:24;31.10;;;19.27;;
7823;SDS011;3957;48.61947800;9.05303100;2022-12-10T08:14:24;30.85;;;20.05;;
7823;SDS011;3957;48.61947800;9.05303100;2022-12-10T08:15:24;29.77;;;19.97;;
7823;SDS011;3957;48.61947800;9.05303100;2022-12-10T08:16:25;32.22;;;19.38;;
7823;SDS011;3957;48.61947800;9.05303100;2022-12-10T08:17:28;31.88;;;18.98;;
7823;SDS011;3957;48.61947800;9.05303100;2022-12-10T08:18:29;29.33;;;18.73;;
7823;SDS011;3957;48.61947800;9.05303100;2022-12-10T08:19:30;29.65;;;19.55;;
7823;SDS011;3957;48.61947800;9.05303100;2022-12-10T08:20:31;30.67;;;19.33;;
7823;SDS011;3957;48.61947800;9.05303100;2022-12-10T08:21:31;32.90;;;19.48;;
7823;SDS011;3957;48.61947800;9.05303100;2022-12-10T08:22:33;29.70;;;19.50;;
7823;SDS011;3957;48.61947800;9.05303100;2022-12-10T08:23:34;31.23;;;18.95;;
7823;SDS011;3957;48.61947800;9.05303100;2022-12-10T08:24:35;30.40;;;18.27;;
7823;SDS011;3957;48.61947800;9.05303100;2022-12-10T08:25:36;30.45;;;18.65;;
7823;SDS011;3957;48.61947800;9.05303100;2022-12-10T08:26:37;28.33;;;17.88;;
7823;SDS011;3957;48.61947800;9.05303100;2022-12-10T08:27:38;30.77;;;18.60;;
7823;SDS011;3957;48.61947800;9.05303100;2022-12-10T08:28:39;27.50;;;19.53;;
7823;SDS011;3957;48.61947800;9.05303100;2022-12-10T08:29:39;29.57;;;20.27;;
7823;SDS011;3957;48.61947800;9.05303100;2022-12-10T08:30:39;29.27;;;18.67;;
7823;SDS011;3957;48.61947800;9.05303100;2022-12-10T08:31:44;28.90;;;18.90;;
7823;SDS011;3957;48.61947800;9.05303100;2022-12-10T08:32:45;31.40;;;19.73;;
7823;SDS011;3957;48.61947800;9.05303100;2022-12-10T08:33:45;34.88;;;21.00;;
7823;SDS011;3957;48.61947800;9.05303100;2022-12-10T08:34:46;31.90;;;19.93;;
7823;SDS011;3957;48.61947800;9.05303100;2022-12-10T08:35:46;28.80;;;18.43;;
7823;SDS011;3957;48.61947800;9.05303100;2022-12-10T08:36:46;33.30;;;20.10;;
7823;SDS011;3957;48.61947800;9.05303100;2022-12-10T08:37:47;33.87;;;19.37;;
7823;SDS011;3957;48.61947800;9.05303100;2022-12-10T08:38:47;29.83;;;18.63;;
7823;SDS011;3957;48.61947800;9.05303100;2022-12-10T08:39:48;27.33;;;17.80;;
7823;SDS011;3957;48.61947800;9.05303100;2022-12-10T08:40:48;26.07;;;17.97;;
7823;SDS011;3957;48.61947800;9.05303100;2022-12-10T08:41:49;32.67;;;20.23;;
7823;SDS011;3957;48.61947800;9.05303100;2022-12-10T08:42:51;29.50;;;18.27;;
7823;SDS011;3957;48.61947800;9.05303100;2022-12-10T08:43:51;26.83;;;17.85;;
7823;SDS011;3957;48.61947800;9.05303100;2022-12-10T08:44:54;30.00;;;19.45;;
7823;SDS011;3957;48.61947800;9.05303100;2022-12-10T08:45:54;27.57;;;18.23;;
7823;SDS011;3957;48.61947800;9.05303100;2022-12-10T08:46:58;27.63;;;18.08;;
7823;SDS011;3957;48.61947800;9.05303100;2022-12-10T08:47:58;27.38;;;17.63;;
7823;SDS011;3957;48.61947800;9.05303100;2022-12-10T08:48:59;27.75;;;18.25;;
7823;SDS011;3957;48.61947800;9.05303100;2022-12-10T08:50:00;30.17;;;18.50;;
7823;SDS011;3957;48.61947800;9.05303100;2022-12-10T08:51:01;29.23;;;18.50;;
7823;SDS011;3957;48.61947800;9.05303100;2022-12-10T08:52:02;27.60;;;18.13;;
7823;SDS011;3957;48.61947800;9.05303100;2022-12-10T08:53:02;29.17;;;18.23;;
7823;SDS011;3957;48.61947800;9.05303100;2022-12-10T08:54:03;27.63;;;18.00;;
7823;SDS011;3957;48.61947800;9.05303100;2022-12-10T08:55:04;29.77;;;19.10;;
7823;SDS011;3957;48.61947800;9.05303100;2022-12-10T08:56:05;28.92;;;19.02;;
7823;SDS011;3957;48.61947800;9.05303100;2022-12-10T08:57:06;27.95;;;17.73;;
7823;SDS011;3957;48.61947800;9.05303100;2022-12-10T08:58:07;27.37;;;17.57;;
7823;SDS011;3957;48.61947800;9.05303100;2022-12-10T08:59:09;27.73;;;17.80;;
7823;SDS011;3957;48.61947800;9.05303100;2022-12-10T09:00:09;29.63;;;18.38;;
7823;SDS011;3957;48.61947800;9.05303100;2022-12-10T09:01:15;33.35;;;19.63;;
7823;SDS011;3957;48.61947800;9.05303100;2022-12-10T09:02:17;30.00;;;18.80;;
7823;SDS011;3957;48.61947800;9.05303100;2022-12-10T09:03:18;28.77;;;18.80;;
7823;SDS011;3957;48.61947800;9.05303100;2022-12-10T09:04:18;26.00;;;17.00;;
7823;SDS011;3957;48.61947800;9.05303100;2022-12-10T09:05:18;25.80;;;17.48;;
7823;SDS011;3957;48.61947800;9.05303100;2022-12-10T09:06:20;28.07;;;18.03;;
7823;SDS011;3957;48.61947800;9.05303100;2022-12-10T09:07:23;25.30;;;17.33;;
7823;SDS011;3957;48.61947800;9.05303100;2022-12-10T09:08:24;26.50;;;17.30;;
7823;SDS011;3957;48.61947800;9.05303100;2022-12-10T09:09:24;28.70;;;17.50;;
7823;SDS011;3957;48.61947800;9.05303100;2022-12-10T09:10:24;27.83;;;18.07;;
7823;SDS011;3957;48.61947800;9.05303100;2022-12-10T09:11:28;29.07;;;17.80;;
7823;SDS011;3957;48.61947800;9.05303100;2022-12-10T09:12:32;25.60;;;17.63;;
7823;SDS011;3957;48.61947800;9.05303100;2022-12-10T09:13:33;23.90;;;16.15;;
7823;SDS011;3957;48.61947800;9.05303100;2022-12-10T09:14:33;34.50;;;20.08;;
7823;SDS011;3957;48.61947800;9.05303100;2022-12-10T09:15:34;27.85;;;18.65;;
7823;SDS011;3957;48.61947800;9.05303100;2022-12-10T09:16:35;28.55;;;18.50;;
7823;SDS011;3957;48.61947800;9.05303100;2022-12-10T09:17:39;28.73;;;18.55;;
7823;SDS011;3957;48.61947800;9.05303100;2022-12-10T09:18:40;28.43;;;18.37;;
7823;SDS011;3957;48.61947800;9.05303100;2022-12-10T09:19:40;27.02;;;17.52;;
7823;SDS011;3957;48.61947800;9.05303100;2022-12-10T09:20:41;28.33;;;17.00;;
7823;SDS011;3957;48.61947800;9.05303100;2022-12-10T09:21:42;25.77;;;18.05;;
7823;SDS011;3957;48.61947800;9.05303100;2022-12-10T09:22:43;28.23;;;17.48;;
7823;SDS011;3957;48.61947800;9.05303100;2022-12-10T09:23:44;26.17;;;17.35;;
7823;SDS011;3957;48.61947800;9.05303100;2022-12-10T09:24:45;25.67;;;16.52;;
7823;SDS011;3957;48.61947800;9.05303100;2022-12-10T09:25:45;24.77;;;16.23;;
7823;SDS011;3957;48.61947800;9.05303100;2022-12-10T09:26:46;25.92;;;16.95;;
7823;SDS011;3957;48.61947800;9.05303100;2022-12-10T09:27:47;28.75;;;19.23;;
7823;SDS011;3957;48.61947800;9.05303100;2022-12-10T09:28:47;30.38;;;18.15;;
7823;SDS011;3957;48.61947800;9.05303100;2022-12-10T09:29:48;27.67;;;16.88;;
7823;SDS011;3957;48.61947800;9.05303100;2022-12-10T09:30:58;26.37;;;17.13;;
7823;SDS011;3957;48.61947800;9.05303100;2022-12-10T09:31:59;25.95;;;17.25;;
7823;SDS011;3957;48.61947800;9.05303100;2022-12-10T09:32:59;28.67;;;17.43;;
7823;SDS011;3957;48.61947800;9.05303100;2022-12-10T09:34:00;27.93;;;17.83;;
7823;SDS011;3957;48.61947800;9.05303100;2022-12-10T09:35:00;26.10;;;17.35;;
7823;SDS011;3957;48.61947800;9.05303100;2022-12-10T09:36:04;28.43;;;17.03;;
7823;SDS011;3957;48.61947800;9.05303100;2022-12-10T09:37:07;27.50;;;17.45;;
7823;SDS011;3957;48.61947800;9.05303100;2022-12-10T09:38:07;27.65;;;16.88;;
7823;SDS011;3957;48.61947800;9.05303100;2022-12-10T09:39:08;28.08;;;17.42;;
7823;SDS011;3957;48.61947800;9.05303100;2022-12-10T09:40:10;24.87;;;16.30;;
7823;SDS011;3957;48.61947800;9.05303100;2022-12-10T09:41:19;26.77;;;17.77;;
7823;SDS011;3957;48.61947800;9.05303100;2022-12-10T09:44:05;26.52;;;17.25;;
7823;SDS011;3957;48.61947800;9.05303100;2022-12-10T09:45:29;25.73;;;17.13;;
7823;SDS011;3957;48.61947800;9.05303100;2022-12-10T09:46:48;25.55;;;16.77;;
7823;SDS011;3957;48.61947800;9.05303100;2022-12-10T09:48:59;26.70;;;16.83;;
7823;SDS011;3957;48.61947800;9.05303100;2022-12-10T09:50:19;23.98;;;16.35;;
7823;SDS011;3957;48.61947800;9.05303100;2022-12-10T09:51:25;24.35;;;16.13;;
7823;SDS011;3957;48.61947800;9.05303100;2022-12-10T09:52:31;24.65;;;16.17;;
7823;SDS011;3957;48.61947800;9.05303100;2022-12-10T09:53:36;25.65;;;16.67;;
7823;SDS011;3957;48.61947800;9.05303100;2022-12-10T09:54:49;29.02;;;17.02;;
7823;SDS011;3957;48.61947800;9.05303100;2022-12-10T09:55:54;27.27;;;16.73;;
7823;SDS011;3957;48.61947800;9.05303100;2022-12-10T09:56:55;25.10;;;16.77;;
7823;SDS011;3957;48.61947800;9.05303100;2022-12-10T09:57:57;25.65;;;16.38;;
7823;SDS011;3957;48.61947800;9.05303100;2022-12-10T09:58:58;23.70;;;16.67;;
7823;SDS011;3957;48.61947800;9.05303100;2022-12-10T10:00:10;28.80;;;17.60;;
7823;SDS011;3957;48.61947800;9.05303100;2022-12-10T10:01:19;24.67;;;16.38;;
7823;SDS011;3957;48.61947800;9.05303100;2022-12-10T10:02:25;25.77;;;16.73;;
7823;SDS011;3957;48.61947800;9.05303100;2022-12-10T10:03:31;26.80;;;16.85;;
7823;SDS011;3957;48.61947800;9.05303100;2022-12-10T10:04:34;26.10;;;16.50;;
7823;SDS011;3957;48.61947800;9.05303100;2022-12-10T10:05:38;27.40;;;17.63;;
7823;SDS011;3957;48.61947800;9.05303100;2022-12-10T10:06:41;24.58;;;16.67;;
7823;SDS011;3957;48.61947800;9.05303100;2022-12-10T10:07:43;27.52;;;17.30;;
7823;SDS011;3957;48.61947800;9.05303100;2022-12-10T10:08:51;26.20;;;17.73;;
7823;SDS011;3957;48.61947800;9.05303100;2022-12-10T10:10:00;24.48;;;17.10;;
7823;SDS011;3957;48.61947800;9.05303100;2022-12-10T10:11:03;26.98;;;17.92;;
7823;SDS011;3957;48.61947800;9.05303100;2022-12-10T10:12:08;27.58;;;17.55;;
7823;SDS011;3957;48.61947800;9.05303100;2022-12-10T10:14:25;25.58;;;16.48;;
7823;SDS011;3957;48.61947800;9.05303100;2022-12-10T10:15:30;27.38;;;17.00;;
7823;SDS011;3957;48.61947800;9.05303100;2022-12-10T10:17:58;25.75;;;17.10;;
7823;SDS011;3957;48.61947800;9.05303100;2022-12-10T10:19:15;27.08;;;17.65;;
7823;SDS011;3957;48.61947800;9.05303100;2022-12-10T10:20:17;27.75;;;18.42;;
7823;SDS011;3957;48.61947800;9.05303100;2022-12-10T10:21:23;25.95;;;17.80;;
7823;SDS011;3957;48.61947800;9.05303100;2022-12-10T10:22:26;29.53;;;17.87;;
7823;SDS011;3957;48.61947800;9.05303100;2022-12-10T10:23:26;27.37;;;18.07;;
7823;SDS011;3957;48.61947800;9.05303100;2022-12-10T10:24:34;25.40;;;17.15;;
7823;SDS011;3957;48.61947800;9.05303100;2022-12-10T10:25:36;29.25;;;19.45;;
7823;SDS011;3957;48.61947800;9.05303100;2022-12-10T10:26:36;27.27;;;17.93;;
7823;SDS011;3957;48.61947800;9.05303100;2022-12-10T10:27:37;28.43;;;17.23;;
7823;SDS011;3957;48.61947800;9.05303100;2022-12-10T10:28:38;26.30;;;17.43;;
7823;SDS011;3957;48.61947800;9.05303100;2022-12-10T10:29:41;26.48;;;17.05;;
7823;SDS011;3957;48.61947800;9.05303100;2022-12-10T10:30:43;26.67;;;17.08;;
7823;SDS011;3957;48.61947800;9.05303100;2022-12-10T10:31:44;27.80;;;18.40;;
7823;SDS011;3957;48.61947800;9.05303100;2022-12-10T10:32:50;24.97;;;16.63;;
7823;SDS011;3957;48.61947800;9.05303100;2022-12-10T10:33:57;27.00;;;16.75;;
7823;SDS011;3957;48.61947800;9.05303100;2022-12-10T10:35:02;26.00;;;16.80;;
7823;SDS011;3957;48.61947800;9.05303100;2022-12-10T10:36:04;26.15;;;17.17;;
7823;SDS011;3957;48.61947800;9.05303100;2022-12-10T10:37:11;26.00;;;17.23;;
7823;SDS011;3957;48.61947800;9.05303100;2022-12-10T10:38:20;25.42;;;16.60;;
7823;SDS011;3957;48.61947800;9.05303100;2022-12-10T10:39:27;23.83;;;16.05;;
7823;SDS011;3957;48.61947800;9.05303100;2022-12-10T10:40:33;23.38;;;16.05;;
7823;SDS011;3957;48.61947800;9.05303100;2022-12-10T10:41:41;26.63;;;17.33;;
7823;SDS011;3957;48.61947800;9.05303100;2022-12-10T10:42:42;27.63;;;17.27;;
7823;SDS011;3957;48.61947800;9.05303100;2022-12-10T10:43:45;25.58;;;16.45;;
7823;SDS011;3957;48.61947800;9.05303100;2022-12-10T10:44:47;24.35;;;17.58;;
7823;SDS011;3957;48.61947800;9.05303100;2022-12-10T10:46:41;21.77;;;15.53;;
7823;SDS011;3957;48.61947800;9.05303100;2022-12-10T10:47:27;25.33;;;16.15;;
7823;SDS011;3957;48.61947800;9.05303100;2022-12-10T10:48:29;28.73;;;17.98;;
7823;SDS011;3957;48.61947800;9.05303100;2022-12-10T10:49:30;26.92;;;18.13;;
7823;SDS011;3957;48.61947800;9.05303100;2022-12-10T10:50:36;24.95;;;17.02;;
7823;SDS011;3957;48.61947800;9.05303100;2022-12-10T10:51:41;25.60;;;17.00;;
7823;SDS011;3957;48.61947800;9.05303100;2022-12-10T10:52:42;24.75;;;16.80;;
7823;SDS011;3957;48.61947800;9.05303100;2022-12-10T10:53:49;27.08;;;17.25;;
7823;SDS011;3957;48.61947800;9.05303100;2022-12-10T10:54:52;24.95;;;17.35;;
7823;SDS011;3957;48.61947800;9.05303100;2022-12-10T10:55:52;26.97;;;17.33;;
7823;SDS011;3957;48.61947800;9.05303100;2022-12-10T10:56:54;25.52;;;16.55;;
7823;SDS011;3957;48.61947800;9.05303100;2022-12-10T10:57:55;26.40;;;16.57;;
7823;SDS011;3957;48.61947800;9.05303100;2022-12-10T10:59:02;24.90;;;17.50;;
7823;SDS011;3957;48.61947800;9.05303100;2022-12-10T11:01:20;26.30;;;17.47;;
7823;SDS011;3957;48.61947800;9.05303100;2022-12-10T11:03:35;24.52;;;16.05;;
7823;SDS011;3957;48.61947800;9.05303100;2022-12-10T11:04:48;24.10;;;16.83;;
7823;SDS011;3957;48.61947800;9.05303100;2022-12-10T11:05:51;24.10;;;16.50;;
7823;SDS011;3957;48.61947800;9.05303100;2022-12-10T11:06:52;24.90;;;16.40;;
7823;SDS011;3957;48.61947800;9.05303100;2022-12-10T11:08:01;22.75;;;15.43;;
7823;SDS011;3957;48.61947800;9.05303100;2022-12-10T11:09:07;21.92;;;14.63;;
7823;SDS011;3957;48.61947800;9.05303100;2022-12-10T11:10:26;28.98;;;17.85;;
7823;SDS011;3957;48.61947800;9.05303100;2022-12-10T11:11:34;26.13;;;15.60;;
7823;SDS011;3957;48.61947800;9.05303100;2022-12-10T11:12:38;24.35;;;15.73;;
7823;SDS011;3957;48.61947800;9.05303100;2022-12-10T11:13:40;22.55;;;15.48;;
7823;SDS011;3957;48.61947800;9.05303100;2022-12-10T11:14:43;24.97;;;16.70;;
7823;SDS011;3957;48.61947800;9.05303100;2022-12-10T11:15:47;26.33;;;16.48;;
7823;SDS011;3957;48.61947800;9.05303100;2022-12-10T11:19:24;27.67;;;16.48;;
7823;SDS011;3957;48.61947800;9.05303100;2022-12-10T11:20:28;26.23;;;17.40;;
7823;SDS011;3957;48.61947800;9.05303100;2022-12-10T11:21:31;23.50;;;16.02;;
7823;SDS011;3957;48.61947800;9.05303100;2022-12-10T11:22:34;24.03;;;16.27;;
7823;SDS011;3957;48.61947800;9.05303100;2022-12-10T11:23:38;25.67;;;17.07;;
7823;SDS011;3957;48.61947800;9.05303100;2022-12-10T11:24:41;23.67;;;16.17;;
7823;SDS011;3957;48.61947800;9.05303100;2022-12-10T11:27:03;24.77;;;16.63;;
7823;SDS011;3957;48.61947800;9.05303100;2022-12-10T11:28:13;23.92;;;15.57;;
7823;SDS011;3957;48.61947800;9.05303100;2022-12-10T11:30:29;21.88;;;15.27;;
7823;SDS011;3957;48.61947800;9.05303100;2022-12-10T11:39:32;19.63;;;14.18;;
7823;SDS011;3957;48.61947800;9.05303100;2022-12-10T11:41:05;22.70;;;15.52;;
7823;SDS011;3957;48.61947800;9.05303100;2022-12-10T11:42:29;24.45;;;15.15;;
7823;SDS011;3957;48.61947800;9.05303100;2022-12-10T11:43:49;24.02;;;16.13;;
7823;SDS011;3957;48.61947800;9.05303100;2022-12-10T11:44:58;21.90;;;14.90;;
7823;SDS011;3957;48.61947800;9.05303100;2022-12-10T11:49:01;28.95;;;18.27;;
7823;SDS011;3957;48.61947800;9.05303100;2022-12-10T11:50:38;29.33;;;18.58;;
7823;SDS011;3957;48.61947800;9.05303100;2022-12-10T11:53:12;22.83;;;16.00;;
7823;SDS011;3957;48.61947800;9.05303100;2022-12-10T11:54:28;25.70;;;16.33;;